Time;durP1;ratioP1;P1;durP2;ratioP2;P2;SDS_P1;SDS_P2;PMS_P1;PMS_P2;Temp;Humidity;BMP_temperature;BMP_pressure;BME280_temperature;BME280_humidity;BME280_pressure;Samples;Min_cycle;Max_cycle;Signal;HPM_P1;HPM_P2
2023/05/30 00:04:44;;;;;;;6.13;3.23;;;;;;;16.99;44.91;100255.16;10359424;28;20267;-37
2023/05/30 00:09:46;;;;;;;7.37;3.50;;;;;;;16.97;45.04;100254.50;10356285;28;20229;-37
2023/05/30 00:14:48;;;;;;;5.33;3.50;;;;;;;16.51;45.73;100269.00;10360669;28;20456;-36
2023/05/30 00:19:52;;;;;;;6.70;3.47;;;;;;;16.87;45.01;100270.34;10341902;28;20596;-37
2023/05/30 00:24:56;;;;;;;5.23;3.57;;;;;;;17.19;44.81;100260.41;10357083;28;20237;-37
2023/05/30 00:29:58;;;;;;;7.77;4.33;;;;;;;17.26;44.28;100245.00;10355254;28;20234;-37
2023/05/30 00:34:59;;;;;;;7.13;3.33;;;;;;;16.14;45.22;100285.66;10355228;28;20886;-37
2023/05/30 00:40:04;;;;;;;5.00;3.33;;;;;;;16.48;44.94;100297.25;10357599;28;20257;-37
2023/05/30 00:45:07;;;;;;;6.33;3.53;;;;;;;15.98;45.09;100289.63;10358248;28;20320;-37
2023/05/30 00:50:09;;;;;;;6.67;3.47;;;;;;;15.80;46.03;100303.72;10355516;28;20237;-37
2023/05/30 00:55:12;;;;;;;4.60;3.13;;;;;;;15.93;45.66;100307.50;10354897;28;20277;-37
2023/05/30 01:00:14;;;;;;;6.77;3.30;;;;;;;16.51;45.19;100302.25;10357976;28;20597;-37
2023/05/30 01:05:16;;;;;;;5.87;3.37;;;;;;;16.77;44.95;100292.44;10362088;28;20687;-37
2023/05/30 01:10:18;;;;;;;7.30;3.67;;;;;;;15.93;46.04;100302.91;10356391;28;20886;-37
2023/05/30 01:15:41;;;;;;;7.27;3.13;;;;;;;16.83;43.94;100301.53;10357011;28;20317;-37
2023/05/30 01:20:48;;;;;;;7.50;3.23;;;;;;;16.32;45.13;100303.97;10359543;28;20284;-37
2023/05/30 01:26:29;;;;;;;6.33;3.77;;;;;;;16.28;44.63;100297.34;10354937;28;20238;-37
2023/05/30 01:31:32;;;;;;;6.57;3.60;;;;;;;15.38;45.58;100310.28;10338650;28;20303;-37
2023/05/30 01:36:35;;;;;;;8.00;3.50;;;;;;;16.26;43.97;100304.78;10354980;28;20346;-37
2023/05/30 01:42:04;;;;;;;7.80;4.27;;;;;;;15.66;45.23;100305.59;10354458;28;20339;-37
2023/05/30 01:47:40;;;;;;;4.73;3.03;;;;;;;16.19;44.78;100307.47;10330016;28;20757;-36
2023/05/30 01:52:46;;;;;;;8.40;3.77;;;;;;;15.36;45.36;100312.34;10358018;28;20228;-37
2023/05/30 01:57:50;;;;;;;7.23;3.47;;;;;;;16.69;44.25;100323.22;10338339;28;20265;-37
2023/05/30 02:02:52;;;;;;;5.17;3.40;;;;;;;15.72;44.65;100333.59;10356386;28;20264;-37
2023/05/30 02:07:53;;;;;;;4.87;3.37;;;;;;;15.14;45.70;100318.72;10352681;28;20234;-37
2023/05/30 02:12:55;;;;;;;5.63;3.30;;;;;;;15.75;45.45;100333.19;10355756;28;20276;-36
2023/05/30 02:17:59;;;;;;;4.53;3.20;;;;;;;15.99;44.25;100326.41;10353364;28;20225;-37
2023/05/30 02:23:01;;;;;;;5.30;3.40;;;;;;;15.76;44.96;100334.03;10347110;28;20618;-36
2023/05/30 02:28:03;;;;;;;6.50;3.20;;;;;;;15.59;45.05;100342.53;10347594;28;20664;-36
2023/05/30 02:33:05;;;;;;;3.93;3.07;;;;;;;15.33;45.49;100354.03;10355794;28;20261;-37
2023/05/30 02:38:07;;;;;;;4.83;3.40;;;;;;;16.19;44.51;100330.94;10314495;28;20321;-37
2023/05/30 02:43:09;;;;;;;7.93;3.60;;;;;;;15.05;45.14;100344.19;10358601;28;20241;-36
2023/05/30 02:48:21;;;;;;;6.87;3.50;;;;;;;15.57;44.99;100343.75;10351274;28;20699;-36
2023/05/30 02:53:23;;;;;;;6.37;3.50;;;;;;;15.85;43.92;100344.41;10358828;28;20583;-36
2023/05/30 02:58:25;;;;;;;6.23;3.30;;;;;;;15.33;44.39;100349.47;10349032;28;20217;-36
2023/05/30 03:03:28;;;;;;;6.77;3.63;;;;;;;14.41;45.49;100321.00;10338230;28;20253;-36
2023/05/30 03:08:30;;;;;;;5.47;3.23;;;;;;;15.58;44.32;100348.13;10350288;28;20233;-36
2023/05/30 03:13:31;;;;;;;6.23;3.23;;;;;;;14.31;45.44;100317.84;10348114;28;20249;-36
2023/05/30 03:18:33;;;;;;;9.27;3.53;;;;;;;14.09;45.56;100300.88;10356987;28;20676;-36
2023/05/30 03:23:35;;;;;;;5.90;2.90;;;;;;;14.97;44.21;100359.69;10362916;28;20853;-36
2023/05/30 03:28:37;;;;;;;5.40;2.77;;;;;;;14.02;45.39;100315.09;10347117;28;20287;-37
2023/05/30 03:33:39;;;;;;;6.03;3.17;;;;;;;15.52;43.58;100353.28;10357932;28;20251;-36
2023/05/30 03:38:41;;;;;;;6.13;2.70;;;;;;;14.32;44.27;100352.59;10358489;28;20691;-36
2023/05/30 03:43:42;;;;;;;6.33;2.93;;;;;;;15.18;43.57;100356.03;10354742;28;20613;-36
2023/05/30 03:48:47;;;;;;;4.37;2.87;;;;;;;14.56;44.59;100370.19;10356490;28;20296;-37
2023/05/30 03:53:49;;;;;;;4.37;2.70;;;;;;;13.65;44.42;100325.09;10350352;28;20245;-37
2023/05/30 03:58:51;;;;;;;6.93;3.73;;;;;;;14.07;44.13;100367.50;10351510;28;20331;-37
2023/05/30 04:03:53;;;;;;;7.63;3.30;;;;;;;13.71;44.02;100333.44;10350813;28;20282;-36
2023/05/30 04:08:55;;;;;;;5.87;2.87;;;;;;;13.20;44.78;100326.25;10357991;28;20232;-36
2023/05/30 04:13:57;;;;;;;7.77;2.70;;;;;;;14.27;43.19;100390.03;10358214;28;20247;-37
2023/05/30 04:18:59;;;;;;;6.13;3.10;;;;;;;14.34;43.18;100407.09;10361547;28;20257;-36
2023/05/30 04:24:01;;;;;;;6.37;3.23;;;;;;;14.55;42.56;100402.72;10365034;28;20233;-37
2023/05/30 04:29:02;;;;;;;6.20;3.00;;;;;;;13.84;43.31;100392.75;10370914;28;20232;-37
2023/05/30 04:34:04;;;;;;;9.23;3.50;;;;;;;13.61;44.02;100398.28;10360586;28;20259;-37
2023/05/30 04:39:06;;;;;;;9.13;3.23;;;;;;;13.43;44.08;100388.78;10363649;28;20311;-37
2023/05/30 04:44:08;;;;;;;7.40;3.10;;;;;;;14.90;42.83;100435.09;10329778;28;20651;-37
2023/05/30 04:49:10;;;;;;;8.17;3.40;;;;;;;14.69;42.78;100433.25;10353444;28;20202;-36
2023/05/30 04:54:13;;;;;;;7.03;3.27;;;;;;;14.67;42.83;100460.38;10351058;28;20349;-36
2023/05/30 04:59:15;;;;;;;7.00;3.23;;;;;;;15.06;42.17;100445.56;10352444;28;20320;-37
2023/05/30 05:04:17;;;;;;;9.10;3.53;;;;;;;15.32;42.15;100446.75;10350103;28;20241;-37
2023/05/30 05:09:20;;;;;;;5.63;3.10;;;;;;;14.73;42.60;100466.88;10352943;28;20307;-36
2023/05/30 05:14:23;;;;;;;7.13;3.00;;;;;;;14.90;42.13;100473.66;10351952;28;20240;-37
2023/05/30 05:19:24;;;;;;;4.63;3.07;;;;;;;14.76;42.60;100467.31;10347393;28;20684;-36
2023/05/30 05:24:26;;;;;;;9.33;2.93;;;;;;;15.39;41.76;100444.91;10348616;28;21066;-36
2023/05/30 05:29:28;;;;;;;9.47;3.67;;;;;;;15.78;41.75;100458.78;10355815;28;20722;-37
2023/05/30 05:34:30;;;;;;;9.17;4.10;;;;;;;15.52;41.90;100458.47;10353169;28;20691;-36
2023/05/30 05:39:31;;;;;;;5.63;3.00;;;;;;;16.88;40.88;100477.41;10352665;28;20214;-36
2023/05/30 05:44:34;;;;;;;5.80;2.43;;;;;;;15.70;42.10;100460.63;10351757;28;20295;-36
2023/05/30 05:49:36;;;;;;;9.27;3.10;;;;;;;15.13;42.23;100476.09;10347862;28;20320;-37
2023/05/30 05:54:38;;;;;;;9.30;3.13;;;;;;;15.92;41.84;100456.97;10350923;28;20256;-36
2023/05/30 05:59:39;;;;;;;8.73;3.00;;;;;;;16.19;41.62;100452.44;10353453;28;20331;-36
2023/05/30 06:04:41;;;;;;;8.23;3.40;;;;;;;15.94;40.98;100460.28;10335685;28;20257;-37
2023/05/30 06:09:43;;;;;;;6.47;2.93;;;;;;;16.05;40.75;100443.50;10352984;28;20257;-37
2023/05/30 06:14:45;;;;;;;8.17;3.03;;;;;;;15.62;41.72;100454.56;10353697;28;20798;-36
2023/05/30 06:19:50;;;;;;;6.37;3.23;;;;;;;16.08;41.45;100464.69;10350970;28;20593;-36
2023/05/30 06:24:52;;;;;;;6.50;2.80;;;;;;;16.16;41.96;100444.75;10353089;28;20707;-36
2023/05/30 06:29:54;;;;;;;6.10;3.20;;;;;;;16.36;40.65;100450.19;10350965;28;21102;-36
2023/05/30 06:34:55;;;;;;;10.60;3.27;;;;;;;17.70;40.24;100432.69;10352200;28;20324;-36
2023/05/30 06:39:57;;;;;;;7.03;3.10;;;;;;;17.44;40.20;100422.78;10350553;28;20233;-37
2023/05/30 06:44:59;;;;;;;7.77;2.67;;;;;;;18.06;39.78;100425.00;10350776;28;20283;-36
2023/05/30 06:50:01;;;;;;;10.73;3.50;;;;;;;17.38;39.99;100412.00;10351996;28;20210;-37
2023/05/30 06:55:03;;;;;;;7.60;2.97;;;;;;;16.79;40.47;100423.59;10350537;28;20242;-37
2023/05/30 07:00:05;;;;;;;6.53;2.73;;;;;;;17.98;40.05;100400.88;10350028;28;20233;-37
2023/05/30 07:05:07;;;;;;;9.33;3.00;;;;;;;19.16;39.61;100383.75;10349171;28;20331;-36
2023/05/30 07:10:12;;;;;;;6.97;3.53;;;;;;;16.83;40.88;100429.41;10348912;28;20333;-36
2023/05/30 07:15:14;;;;;;;5.73;2.90;;;;;;;17.80;40.50;100396.19;10323897;28;20329;-36
2023/05/30 07:20:22;;;;;;;11.10;4.00;;;;;;;17.64;40.19;100395.66;10330013;28;20291;-36
2023/05/30 07:25:24;;;;;;;10.60;3.17;;;;;;;17.24;40.34;100424.75;10328206;28;20722;-36
2023/05/30 07:30:26;;;;;;;8.00;3.43;;;;;;;18.21;40.06;100360.50;10350520;28;20915;-37
2023/05/30 07:35:28;;;;;;;6.03;3.60;;;;;;;17.55;40.35;100389.66;10346806;28;20237;-36
2023/05/30 07:40:30;;;;;;;5.40;2.90;;;;;;;19.33;39.16;100358.72;10349122;28;20280;-37
2023/05/30 07:45:31;;;;;;;8.20;3.13;;;;;;;17.01;40.71;100400.91;10349905;28;20251;-37
2023/05/30 07:50:33;;;;;;;9.63;3.90;;;;;;;17.89;39.71;100373.25;10357003;28;20729;-37
2023/05/30 07:55:35;;;;;;;5.80;3.40;;;;;;;17.51;40.57;100409.22;10353428;28;20248;-36
2023/05/30 08:00:37;;;;;;;9.57;3.30;;;;;;;17.94;40.74;100378.84;10352832;28;20686;-37
2023/05/30 08:05:38;;;;;;;7.90;3.77;;;;;;;17.91;40.27;100344.06;10354040;28;20355;-37
2023/05/30 08:10:40;;;;;;;5.40;3.10;;;;;;;18.15;39.96;100364.06;10357050;28;20236;-37
2023/05/30 08:15:43;;;;;;;8.77;3.47;;;;;;;18.50;40.32;100328.38;10353569;28;20238;-37
2023/05/30 08:20:45;;;;;;;5.70;3.17;;;;;;;18.05;40.36;100333.97;10353887;28;20686;-36
2023/05/30 08:25:47;;;;;;;9.47;3.80;;;;;;;17.59;40.56;100391.94;10353297;28;20241;-38
2023/05/30 08:30:50;;;;;;;8.37;3.40;;;;;;;18.03;40.36;100382.09;10349994;28;20328;-37
2023/05/30 08:35:52;;;;;;;6.13;3.27;;;;;;;18.25;39.76;100358.16;10352460;28;20700;-37
2023/05/30 08:40:53;;;;;;;7.23;3.40;;;;;;;18.51;40.13;100340.03;10348851;28;20316;-37
2023/05/30 08:45:57;;;;;;;8.80;3.77;;;;;;;19.43;39.53;100312.03;10349600;28;20288;-37
2023/05/30 08:50:59;;;;;;;5.57;3.13;;;;;;;18.58;39.68;100316.41;10350607;28;20240;-37
2023/05/30 08:56:07;;;;;;;7.68;3.60;;;;;;;19.99;38.96;100272.75;10351673;28;20232;-37
2023/05/30 09:01:10;;;;;;;7.13;3.40;;;;;;;20.05;38.78;100250.06;10352298;28;20237;-37
2023/05/30 09:06:13;;;;;;;9.65;4.03;;;;;;;19.57;39.18;100291.84;10348054;28;20241;-37
2023/05/30 09:11:15;;;;;;;6.35;3.33;;;;;;;19.68;39.24;100279.34;10353981;28;21004;-37
2023/05/30 09:16:18;;;;;;;8.52;3.03;;;;;;;20.46;38.84;100261.91;10352501;28;20229;-37
2023/05/30 09:21:20;;;;;;;7.78;3.75;;;;;;;20.21;38.57;100243.13;10336239;28;20229;-37
2023/05/30 09:26:21;;;;;;;6.00;3.15;;;;;;;19.45;39.16;100277.34;10349080;28;20320;-37
2023/05/30 09:31:23;;;;;;;7.32;3.35;;;;;;;20.63;37.91;100218.47;10353027;28;20302;-38
2023/05/30 09:36:26;;;;;;;5.68;3.00;;;;;;;19.84;38.00;100234.38;10348363;28;20244;-38
2023/05/30 09:41:29;;;;;;;7.20;3.58;;;;;;;20.39;37.82;100227.75;10350230;28;20901;-38
2023/05/30 09:46:30;;;;;;;5.82;3.08;;;;;;;20.33;38.06;100242.28;10347559;28;20335;-37
2023/05/30 09:51:32;;;;;;;7.75;3.30;;;;;;;20.02;37.55;100255.16;10350018;28;20232;-38
2023/05/30 09:56:38;;;;;;;5.38;2.72;;;;;;;21.59;37.55;100195.16;10345985;28;20229;-38
2023/05/30 10:01:45;;;;;;;6.40;3.42;;;;;;;21.20;37.56;100165.13;10347182;28;20241;-38
2023/05/30 10:06:52;;;;;;;6.03;3.05;;;;;;;21.79;37.36;100181.03;10343982;28;21159;-38
2023/05/30 10:11:54;;;;;;;7.63;3.42;;;;;;;20.66;36.93;100201.66;10345888;28;20229;-38
2023/05/30 10:17:09;;;;;;;9.13;3.95;;;;;;;20.82;36.83;100183.78;10347058;28;20237;-38
2023/05/30 10:22:12;;;;;;;5.40;2.92;;;;;;;22.09;36.10;100133.53;10347579;28;20239;-38
2023/05/30 10:27:23;;;;;;;6.00;3.20;;;;;;;22.89;36.42;100142.91;10345907;28;20232;-38
2023/05/30 10:32:29;;;;;;;6.05;3.33;;;;;;;22.55;35.59;100130.53;10347258;28;20230;-38
2023/05/30 10:37:32;;;;;;;6.43;2.97;;;;;;;22.23;35.37;100123.88;10344575;28;20320;-38
2023/05/30 10:43:07;;;;;;;4.55;2.83;;;;;;;22.77;36.20;100114.94;10347973;28;20256;-37
2023/05/30 10:48:21;;;;;;;6.53;3.17;;;;;;;21.26;35.51;100141.56;10330516;28;20268;-38
2023/05/30 10:53:22;;;;;;;7.95;2.88;;;;;;;23.15;34.93;100072.19;10347719;28;20224;-38
2023/05/30 10:58:43;;;;;;;8.07;3.35;;;;;;;22.39;34.95;100059.47;10345479;28;20213;-37
2023/05/30 11:06:35;;;;;;;5.38;2.95;;;;;;;21.02;37.64;100125.34;10380600;28;21418;-69
2023/05/30 11:11:45;;;;;;;6.80;3.25;;;;;;;21.53;36.54;100073.66;10332320;28;20241;-69
2023/05/30 11:17:02;;;;;;;7.38;2.75;;;;;;;21.52;36.50;100129.19;10368124;28;20724;-69
2023/05/30 11:22:10;;;;;;;8.27;3.40;;;;;;;21.99;35.83;100087.09;10342435;28;20233;-69
2023/05/30 11:27:15;;;;;;;9.10;3.65;;;;;;;21.90;36.21;100056.72;10339739;28;20754;-69
2023/05/30 11:32:19;;;;;;;7.00;3.20;;;;;;;21.48;34.96;100088.03;10368261;28;20225;-69
2023/05/30 11:37:22;;;;;;;7.78;3.22;;;;;;;22.40;35.54;100074.72;10373863;28;20232;-69
2023/05/30 11:42:28;;;;;;;5.35;3.17;;;;;;;22.49;35.98;100042.41;10379324;28;20275;-68
2023/05/30 11:47:31;;;;;;;7.30;3.40;;;;;;;22.31;35.21;100047.13;10375449;28;20684;-69
2023/05/30 11:52:47;;;;;;;5.63;2.95;;;;;;;22.15;35.38;100020.81;10341836;28;20395;-69
2023/05/30 11:57:49;;;;;;;5.75;3.00;;;;;;;23.61;34.70;99987.81;10367633;28;20275;-69
2023/05/30 12:02:52;;;;;;;7.82;3.30;;;;;;;22.55;34.48;100035.91;10371371;28;20605;-69
2023/05/30 12:07:54;;;;;;;9.57;2.95;;;;;;;22.90;35.20;100040.84;10375107;28;20229;-69
2023/05/30 12:12:56;;;;;;;6.25;3.28;;;;;;;22.89;34.55;100028.31;10371607;28;20253;-69
2023/05/30 12:18:00;;;;;;;5.45;2.95;;;;;;;22.18;34.40;100052.97;10345224;28;20233;-68
2023/05/30 12:23:05;;;;;;;5.53;2.80;;;;;;;22.46;34.81;100035.53;10342985;28;20229;-69
2023/05/30 12:28:12;;;;;;;7.43;3.10;;;;;;;22.24;33.88;100029.34;10341584;28;20237;-69
2023/05/30 12:33:24;;;;;;;3.33;2.50;;;;;;;22.79;34.06;100030.97;10345238;28;20225;-68
2023/05/30 12:38:25;;;;;;;4.60;2.63;;;;;;;21.89;34.16;100058.59;10349498;28;20233;-67
2023/05/30 12:43:28;;;;;;;6.65;3.10;;;;;;;22.44;34.42;100018.63;10347712;28;20233;-68
2023/05/30 12:48:30;;;;;;;6.50;3.00;;;;;;;22.87;34.77;99991.44;10346590;28;20597;-70
2023/05/30 12:53:31;;;;;;;4.65;2.70;;;;;;;23.36;33.62;99991.22;10349173;28;20233;-68
2023/05/30 12:58:33;;;;;;;6.78;2.88;;;;;;;22.62;34.52;100035.72;10346799;28;20708;-69
2023/05/30 13:03:35;;;;;;;5.35;3.03;;;;;;;23.34;33.56;99973.47;10350201;28;20346;-68
2023/05/30 13:08:37;;;;;;;5.93;3.00;;;;;;;22.84;33.47;100005.59;10348776;28;20232;-70
2023/05/30 13:13:38;;;;;;;3.78;2.80;;;;;;;21.58;33.38;100035.63;10344385;28;20333;-67
2023/05/30 13:18:40;;;;;;;7.50;3.38;;;;;;;22.78;32.95;99979.41;10350123;28;20244;-69
2023/05/30 13:23:42;;;;;;;6.55;2.88;;;;;;;22.60;33.26;99997.78;10347500;28;20257;-70
2023/05/30 13:28:43;;;;;;;7.18;3.10;;;;;;;22.09;33.82;100024.53;10346651;28;20263;-69
2023/05/30 13:33:45;;;;;;;5.28;2.63;;;;;;;24.34;32.71;99917.75;10345389;28;20260;-71
2023/05/30 13:38:47;;;;;;;6.47;2.85;;;;;;;23.17;32.94;99988.13;10345213;28;20237;-70
2023/05/30 13:43:49;;;;;;;6.10;2.88;;;;;;;23.87;32.82;99933.28;10342868;28;20729;-71
2023/05/30 13:48:51;;;;;;;5.60;2.95;;;;;;;23.61;32.90;99956.97;10345501;28;20228;-70
2023/05/30 13:53:53;;;;;;;5.78;2.88;;;;;;;22.34;32.54;100005.72;10341452;28;20236;-70
2023/05/30 13:59:03;;;;;;;5.20;2.95;;;;;;;23.80;32.31;99917.13;10339525;28;20746;-71
2023/05/30 14:04:05;;;;;;;6.85;3.10;;;;;;;23.36;32.38;99990.41;10349698;28;20261;-70
2023/05/30 14:09:07;;;;;;;6.35;2.90;;;;;;;24.20;31.12;99919.41;10344883;28;20249;-70
2023/05/30 14:14:09;;;;;;;9.15;2.95;;;;;;;23.33;31.57;99978.13;10343763;28;20248;-71
2023/05/30 14:19:11;;;;;;;4.95;3.15;;;;;;;23.25;31.79;99978.63;10347804;28;20277;-70
2023/05/30 14:24:13;;;;;;;6.30;2.90;;;;;;;23.24;32.15;99983.25;10343219;28;20265;-70
2023/05/30 14:29:15;;;;;;;5.00;3.05;;;;;;;24.12;31.82;99891.50;10343401;28;20245;-70
2023/05/30 14:34:17;;;;;;;8.13;2.60;;;;;;;24.80;31.01;99904.03;10343604;28;20615;-71
2023/05/30 14:39:18;;;;;;;6.05;2.70;;;;;;;24.85;29.64;99867.63;10341797;28;20865;-71
2023/05/30 14:44:20;;;;;;;4.38;2.63;;;;;;;23.65;31.61;99979.09;10343778;28;20238;-70
2023/05/30 14:49:22;;;;;;;5.57;2.97;;;;;;;25.03;31.06;99871.66;10339144;28;20233;-70
2023/05/30 14:54:25;;;;;;;5.72;2.60;;;;;;;23.68;30.98;99964.91;10342321;28;20397;-70
2023/05/30 14:59:27;;;;;;;4.70;2.88;;;;;;;22.96;32.02;99967.22;10339710;28;20360;-70
2023/05/30 15:04:28;;;;;;;4.72;2.45;;;;;;;23.04;31.00;99962.13;10344130;28;20237;-70
2023/05/30 15:09:31;;;;;;;5.30;3.08;;;;;;;24.16;31.12;99922.66;10339738;28;20251;-70
2023/05/30 15:14:32;;;;;;;5.45;2.58;;;;;;;24.52;29.82;99906.25;10330031;23;20234;-36
2023/05/30 15:19:35;;;;;;;4.43;2.33;;;;;;;24.27;30.21;99930.88;10301629;28;20300;-35
2023/05/30 15:24:36;;;;;;;6.45;2.80;;;;;;;23.26;30.43;99964.72;10308002;28;20230;-36
2023/05/30 15:29:38;;;;;;;3.90;2.42;;;;;;;24.15;29.23;99942.06;10302235;28;20241;-36
2023/05/30 15:34:42;;;;;;;4.85;2.67;;;;;;;24.73;29.57;99885.19;10299879;28;20246;-36
2023/05/30 15:39:44;;;;;;;5.65;2.47;;;;;;;24.27;29.53;99933.59;10298273;28;20331;-36
2023/05/30 15:44:47;;;;;;;4.78;2.70;;;;;;;24.62;29.51;99891.72;10300753;28;20238;-36
2023/05/30 15:49:48;;;;;;;5.72;2.50;;;;;;;25.44;28.32;99883.28;10303801;28;20234;-35
2023/05/30 15:54:50;;;;;;;5.68;2.65;;;;;;;24.53;28.56;99931.69;10307628;28;20242;-38
2023/05/30 15:59:52;;;;;;;9.30;3.40;;;;;;;24.37;28.79;99933.59;10308219;28;20214;-37
2023/05/30 16:04:54;;;;;;;8.43;2.65;;;;;;;24.44;28.80;99942.34;10304010;28;20265;-37
2023/05/30 16:09:56;;;;;;;4.60;2.78;;;;;;;24.20;28.20;99919.41;10307744;28;20305;-37
2023/05/30 16:14:58;;;;;;;4.43;2.55;;;;;;;23.78;28.05;99949.34;10310877;28;20237;-36
2023/05/30 16:20:00;;;;;;;4.07;2.33;;;;;;;23.95;28.19;99968.25;10308601;28;21165;-36
2023/05/30 16:25:04;;;;;;;4.13;2.40;;;;;;;24.61;27.41;99954.91;10306648;28;20762;-37
2023/05/30 16:30:06;;;;;;;3.70;2.28;;;;;;;23.89;27.00;99976.72;10308346;28;20217;-36
2023/05/30 16:35:09;;;;;;;4.65;2.60;;;;;;;24.06;27.30;99943.69;10308158;28;20237;-36
2023/05/30 16:40:11;;;;;;;3.22;2.30;;;;;;;23.06;27.02;99962.69;10306545;28;20313;-36
2023/05/30 16:45:12;;;;;;;3.03;2.10;;;;;;;24.62;26.68;99942.91;10310503;28;20791;-35
2023/05/30 16:50:14;;;;;;;3.90;2.35;;;;;;;23.60;26.61;99975.22;10308643;28;20230;-37
2023/05/30 16:55:16;;;;;;;4.85;2.50;;;;;;;24.15;27.19;99951.09;10310149;28;20226;-37
2023/05/30 17:00:18;;;;;;;4.60;2.30;;;;;;;23.15;27.18;99984.84;10309642;28;20229;-37
2023/05/30 17:05:21;;;;;;;4.88;2.40;;;;;;;22.32;27.44;100016.06;10308961;28;20288;-35
2023/05/30 17:10:23;;;;;;;4.70;2.25;;;;;;;23.41;27.54;99998.63;10306797;28;20230;-35
2023/05/30 17:15:25;;;;;;;4.90;2.47;;;;;;;22.79;27.50;100008.31;10306764;28;20238;-35
2023/05/30 17:20:27;;;;;;;4.13;2.40;;;;;;;24.13;27.79;99946.97;10311977;28;20230;-36
2023/05/30 17:25:30;;;;;;;3.42;2.33;;;;;;;23.78;27.34;99968.47;10306089;28;20316;-35
2023/05/30 17:30:35;;;;;;;5.18;2.15;;;;;;;23.50;27.83;99979.81;10307668;28;20234;-35
2023/05/30 17:35:37;;;;;;;4.93;2.35;;;;;;;21.90;28.84;99958.66;10307651;28;20233;-36
2023/05/30 17:40:39;;;;;;;3.72;2.20;;;;;;;22.69;28.03;99968.97;10312338;28;20727;-35
2023/05/30 17:45:41;;;;;;;3.33;2.28;;;;;;;23.93;27.89;99912.22;10309286;28;20239;-35
2023/05/30 17:50:43;;;;;;;5.53;2.47;;;;;;;23.56;28.23;99955.00;10311814;28;20241;-35
2023/05/30 17:55:44;;;;;;;3.75;2.40;;;;;;;23.45;28.27;99969.72;10310382;28;20331;-36
2023/05/30 18:00:46;;;;;;;5.95;2.55;;;;;;;22.68;28.72;99967.31;10306832;28;20241;-36
2023/05/30 18:05:48;;;;;;;5.38;2.58;;;;;;;22.60;28.24;99999.69;10305022;28;20233;-35
2023/05/30 18:10:50;;;;;;;4.63;2.40;;;;;;;22.18;28.69;99994.94;10307640;28;20296;-35
2023/05/30 18:15:52;;;;;;;4.07;2.38;;;;;;;22.82;27.97;99985.97;10304893;28;20245;-36
2023/05/30 18:20:54;;;;;;;4.30;2.42;;;;;;;21.13;28.16;99976.72;10304692;28;20247;-36
2023/05/30 18:25:56;;;;;;;6.25;2.70;;;;;;;22.71;27.55;100004.16;10303633;28;20226;-35
2023/05/30 18:30:58;;;;;;;6.53;2.10;;;;;;;22.12;27.64;100016.69;10306435;28;20230;-34
2023/05/30 18:36:00;;;;;;;3.28;2.50;;;;;;;21.84;27.67;100028.59;10301225;28;20242;-35
2023/05/30 18:41:15;;;;;;;4.45;2.30;;;;;;;21.77;27.71;100039.66;10302786;28;20315;-36
2023/05/30 18:46:17;;;;;;;5.30;2.10;;;;;;;22.32;27.68;100024.25;10304777;28;20605;-35
2023/05/30 18:51:18;;;;;;;8.40;2.35;;;;;;;21.62;28.00;100028.59;10304916;28;20653;-35
2023/05/30 18:56:22;;;;;;;3.05;2.17;;;;;;;21.39;28.27;100041.38;10303692;28;20315;-35
2023/05/30 19:01:25;;;;;;;5.13;2.10;;;;;;;20.84;28.32;100023.09;10306207;28;20222;-36
2023/05/30 19:06:27;;;;;;;5.47;1.98;;;;;;;20.71;28.23;100040.50;10301759;28;20241;-36
2023/05/30 19:11:28;;;;;;;4.95;2.55;;;;;;;20.90;28.11;100046.56;10302235;28;20280;-35
2023/05/30 19:16:30;;;;;;;4.25;2.60;;;;;;;20.41;28.41;100046.25;10303995;28;20246;-36
2023/05/30 19:21:32;;;;;;;2.72;2.03;;;;;;;21.58;27.89;100044.59;10305754;28;20234;-35
2023/05/30 19:26:34;;;;;;;4.75;2.20;;;;;;;20.45;28.10;100050.13;10303479;28;20273;-35
2023/05/30 19:31:36;;;;;;;5.35;2.22;;;;;;;20.94;27.72;100063.22;10313407;28;20233;-35
2023/05/30 19:36:38;;;;;;;4.30;2.45;;;;;;;20.21;28.28;100060.25;10312845;28;20234;-36
2023/05/30 19:41:40;;;;;;;4.57;2.25;;;;;;;21.37;27.73;100065.28;10389282;28;20240;-35
2023/05/30 19:46:41;;;;;;;5.47;2.40;;;;;;;21.82;27.24;100059.88;10393398;28;20237;-35
2023/05/30 19:51:43;;;;;;;5.22;2.45;;;;;;;20.70;28.10;100066.06;10391966;28;20286;-36
2023/05/30 19:56:46;;;;;;;4.53;2.17;;;;;;;18.87;30.58;100023.91;10391713;28;20367;-36
2023/05/30 20:01:48;;;;;;;3.08;2.00;;;;;;;18.61;30.18;100031.41;10393066;28;20348;-36
2023/05/30 20:06:51;;;;;;;4.38;2.30;;;;;;;18.92;30.82;100057.41;10392152;28;20670;-35
2023/05/30 20:11:53;;;;;;;5.43;2.40;;;;;;;18.40;32.28;100038.16;10394873;28;20237;-35
2023/05/30 20:16:55;;;;;;;5.28;2.50;;;;;;;18.82;33.07;100059.84;10390091;28;20243;-36
2023/05/30 20:21:56;;;;;;;4.45;2.50;;;;;;;19.36;33.14;100047.03;10391119;28;20307;-36
2023/05/30 20:27:00;;;;;;;5.30;2.40;;;;;;;19.27;33.43;100069.38;10391511;28;20267;-35
2023/05/30 20:32:02;;;;;;;5.63;2.88;;;;;;;19.33;33.36;100071.13;10391523;28;20258;-36
2023/05/30 20:37:05;;;;;;;6.30;2.28;;;;;;;18.76;34.00;100042.63;10394484;28;20614;-36
2023/05/30 20:42:07;;;;;;;3.42;2.25;;;;;;;19.61;34.37;100054.16;10395307;28;21267;-35
2023/05/30 20:47:10;;;;;;;5.03;2.83;;;;;;;18.59;35.28;100060.59;10376625;28;20695;-36
2023/05/30 20:52:12;;;;;;;5.38;2.50;;;;;;;19.37;35.26;100050.59;10392828;28;20236;-35
2023/05/30 20:57:16;;;;;;;5.32;2.42;;;;;;;17.85;36.96;100052.59;10394233;28;20236;-35
2023/05/30 21:02:17;;;;;;;6.67;2.60;;;;;;;18.06;36.89;100068.38;10392568;28;20256;-35
2023/05/30 21:07:19;;;;;;;5.97;2.60;;;;;;;19.28;35.44;100077.28;10392415;28;20937;-36
2023/05/30 21:12:21;;;;;;;3.05;2.38;;;;;;;19.09;35.91;100086.56;10391344;28;20233;-35
2023/05/30 21:17:23;;;;;;;6.73;2.50;;;;;;;18.62;36.33;100096.22;10393178;28;20232;-35
2023/05/30 21:22:25;;;;;;;8.70;2.58;;;;;;;18.48;36.46;100102.88;10374377;28;20254;-36
2023/05/30 21:27:27;;;;;;;4.40;2.38;;;;;;;19.30;35.57;100091.41;10389146;28;20240;-36
2023/05/30 21:32:29;;;;;;;5.73;2.40;;;;;;;18.69;35.87;100131.34;10393478;28;20232;-36
2023/05/30 21:37:30;;;;;;;6.27;2.53;;;;;;;17.82;36.27;100099.91;10392092;28;20232;-35
2023/05/30 21:42:32;;;;;;;6.95;2.30;;;;;;;19.21;35.16;100133.50;10390086;28;20302;-35
2023/05/30 21:47:35;;;;;;;7.00;2.60;;;;;;;17.49;36.17;100092.91;10387171;28;20287;-35
2023/05/30 21:52:37;;;;;;;5.80;2.25;;;;;;;18.44;35.29;100151.28;10392542;28;20705;-35
2023/05/30 21:57:39;;;;;;;5.97;2.33;;;;;;;18.48;35.05;100161.66;10390181;28;20310;-35
2023/05/30 22:02:41;;;;;;;7.83;2.40;;;;;;;18.64;34.66;100153.72;10390434;28;20280;-35
2023/05/30 22:07:43;;;;;;;3.20;2.60;;;;;;;17.57;34.93;100131.56;10389815;28;20240;-35
2023/05/30 22:12:45;;;;;;;7.05;2.50;;;;;;;17.34;35.28;100146.53;10374711;28;20591;-35
2023/05/30 22:17:47;;;;;;;6.22;2.15;;;;;;;17.79;34.72;100170.72;10388727;28;20291;-35
2023/05/30 22:22:49;;;;;;;4.13;3.07;;;;;;;17.43;34.61;100161.44;10391384;28;20236;-35
2023/05/30 22:27:51;;;;;;;6.63;2.30;;;;;;;18.45;33.75;100168.34;10389092;28;20466;-35
2023/05/30 22:32:54;;;;;;;3.70;2.40;;;;;;;17.13;34.07;100170.19;10389670;28;20232;-35
2023/05/30 22:37:56;;;;;;;4.77;2.23;;;;;;;18.00;33.29;100185.72;10389239;28;20239;-35
2023/05/30 22:42:57;;;;;;;2.37;1.93;;;;;;;17.66;32.90;100192.50;10389166;28;20240;-36
2023/05/30 22:47:59;;;;;;;4.43;2.17;;;;;;;18.52;32.31;100188.06;10389288;28;20374;-35
2023/05/30 22:53:01;;;;;;;3.67;1.90;;;;;;;17.09;32.91;100197.88;10388879;28;20827;-36
2023/05/30 22:58:03;;;;;;;4.93;2.23;;;;;;;17.41;32.75;100219.50;10388540;28;20276;-35
2023/05/30 23:03:07;;;;;;;5.47;2.30;;;;;;;16.73;34.02;100202.00;10387783;28;20235;-35
2023/05/30 23:08:09;;;;;;;3.93;1.80;;;;;;;17.51;33.19;100206.31;10389667;28;20306;-36
2023/05/30 23:13:12;;;;;;;1.90;1.70;;;;;;;17.02;33.00;100205.22;10388094;28;20248;-35
2023/05/30 23:18:13;;;;;;;3.73;2.20;;;;;;;18.04;32.75;100197.75;10368813;28;21434;-35
2023/05/30 23:23:15;;;;;;;3.13;2.10;;;;;;;16.50;33.70;100178.22;10384692;28;20768;-35